createdAt,value
2019-01-21T00:01:36.194Z,101823.37
2019-01-21T00:04:07.221Z,101818.09
2019-01-21T00:06:43.552Z,101819.00
2019-01-21T00:09:14.186Z,101816.37
2019-01-21T00:11:46.280Z,101819.00
2019-01-21T00:14:17.390Z,101819.87
2019-01-21T00:16:47.794Z,101811.16
2019-01-21T00:19:18.141Z,101810.25
2019-01-21T00:21:48.818Z,101804.16
2019-01-21T00:24:19.402Z,101800.23
2019-01-21T00:26:49.895Z,101802.83
2019-01-21T00:29:32.142Z,101798.50
2019-01-21T00:32:02.746Z,101806.31
2019-01-21T00:37:37.457Z,101801.48
2019-01-21T00:40:09.236Z,101807.58
2019-01-21T00:42:39.640Z,101810.16
2019-01-21T00:45:21.450Z,101798.44
2019-01-21T00:47:51.799Z,101796.70
2019-01-21T00:50:22.110Z,101799.70
2019-01-21T00:55:34.928Z,101797.97
2019-01-21T00:58:05.603Z,101792.70
2019-01-21T01:00:36.168Z,101801.41
2019-01-21T01:03:06.560Z,101796.15
2019-01-21T01:05:37.109Z,101800.58
2019-01-21T01:08:07.741Z,101799.23
2019-01-21T01:10:38.259Z,101804.50
2019-01-21T01:13:09.218Z,101794.48
2019-01-21T01:15:40.144Z,101792.31
2019-01-21T01:18:12.211Z,101799.23
2019-01-21T01:20:42.560Z,101798.80
2019-01-21T01:23:12.924Z,101804.94
2019-01-21T01:25:43.444Z,101799.20
2019-01-21T01:28:14.444Z,101798.80
2019-01-21T01:30:44.781Z,101789.19
2019-01-21T01:33:15.825Z,101791.80
2019-01-21T01:35:46.147Z,101787.45
2019-01-21T01:38:16.448Z,101776.95
2019-01-21T01:40:46.837Z,101777.33
2019-01-21T01:43:17.495Z,101777.77
2019-01-21T01:45:47.960Z,101771.30
2019-01-21T01:48:18.385Z,101771.30
2019-01-21T01:53:30.706Z,101767.29
2019-01-21T01:56:01.151Z,101768.16
2019-01-21T01:58:31.533Z,101765.50
2019-01-21T02:01:02.073Z,101764.61
2019-01-21T02:03:32.573Z,101762.00
2019-01-21T02:06:02.871Z,101762.88
2019-01-21T02:08:33.270Z,101759.84
2019-01-21T02:11:03.603Z,101768.10
2019-01-21T02:13:33.972Z,101759.77
2019-01-21T02:16:23.294Z,101762.27
2019-01-21T02:18:53.571Z,101758.84
2019-01-21T02:22:03.368Z,101757.11
2019-01-21T02:24:36.955Z,101755.35
2019-01-21T02:27:45.505Z,101753.14
2019-01-21T02:30:40.546Z,101748.78
2019-01-21T02:33:59.906Z,101746.11
2019-01-21T02:36:53.786Z,101745.23
2019-01-21T02:40:02.966Z,101735.63
2019-01-21T02:43:11.504Z,101730.81
2019-01-21T02:46:19.986Z,101732.48
2019-01-21T02:49:28.896Z,101727.66
2019-01-21T02:52:27.235Z,101725.05
2019-01-21T02:55:24.479Z,101718.95
2019-01-21T02:58:33.039Z,101718.14
2019-01-21T03:01:41.489Z,101712.94
2019-01-21T03:04:50.033Z,101719.47
2019-01-21T03:07:45.935Z,101713.02
2019-01-21T03:10:54.473Z,101706.56
2019-01-21T03:14:10.484Z,101706.14
2019-01-21T03:17:11.193Z,101707.92
2019-01-21T03:20:19.682Z,101702.73
2019-01-21T03:23:28.155Z,101707.07
2019-01-21T03:26:09.770Z,101699.31
2019-01-21T03:29:18.566Z,101688.88
2019-01-21T03:32:27.093Z,101688.88
2019-01-21T03:35:23.298Z,101689.36
2019-01-21T03:38:31.710Z,101678.50
2019-01-21T03:41:40.409Z,101675.45
2019-01-21T03:44:48.862Z,101672.45
2019-01-21T03:47:57.493Z,101660.28
2019-01-21T03:51:05.919Z,101650.72
2019-01-21T03:54:02.149Z,101645.93
2019-01-21T03:57:12.306Z,101656.33
2019-01-21T04:00:07.041Z,101651.11
2019-01-21T04:03:15.455Z,101652.45
2019-01-21T04:06:24.025Z,101649.88
2019-01-21T04:09:32.457Z,101651.63
2019-01-21T04:12:28.588Z,101640.75
2019-01-21T04:15:38.679Z,101641.19
2019-01-21T04:18:47.220Z,101637.67
2019-01-21T04:21:29.420Z,101634.23
2019-01-21T04:24:38.187Z,101635.53
2019-01-21T04:27:46.608Z,101635.97
2019-01-21T04:30:55.037Z,101638.14
2019-01-21T04:34:03.697Z,101638.14
2019-01-21T04:37:12.280Z,101639.87
2019-01-21T04:40:20.690Z,101646.87
2019-01-21T04:43:29.125Z,101648.64
2019-01-21T04:46:32.021Z,101639.50
2019-01-21T04:49:40.428Z,101635.17
2019-01-21T04:52:49.793Z,101632.58
2019-01-21T04:59:12.395Z,101628.66
2019-01-21T05:02:26.158Z,101626.08
2019-01-21T05:05:35.325Z,101614.31
2019-01-21T05:08:43.859Z,101620.41
2019-01-21T05:11:52.677Z,101610.84
2019-01-21T05:15:10.169Z,101607.79
2019-01-21T05:18:19.375Z,101608.21
2019-01-21T05:21:29.398Z,101602.57
2019-01-21T05:24:37.967Z,101588.65
2019-01-21T05:27:46.412Z,101583.42
2019-01-21T05:33:46.198Z,101576.88
2019-01-21T05:36:57.509Z,101585.16
2019-01-21T05:39:53.040Z,101596.91
2019-01-21T05:43:04.283Z,101596.48
2019-01-21T05:46:12.725Z,101593.85
2019-01-21T05:49:21.129Z,101580.38
2019-01-21T05:55:47.988Z,101582.08
2019-01-21T05:58:30.151Z,101581.20
2019-01-21T06:01:55.159Z,101580.36
2019-01-21T06:05:03.606Z,101578.16
2019-01-21T06:08:12.080Z,101569.03
2019-01-21T06:11:08.103Z,101569.89
2019-01-21T06:14:03.541Z,101567.28
2019-01-21T06:17:12.236Z,101559.00
2019-01-21T06:20:20.775Z,101558.56
2019-01-21T06:23:17.029Z,101554.66
2019-01-21T06:26:25.789Z,101553.78
2019-01-21T06:29:34.182Z,101553.36
2019-01-21T06:32:42.730Z,101546.83
2019-01-21T06:35:35.663Z,101556.84
2019-01-21T06:38:29.426Z,101572.07
2019-01-21T06:41:26.335Z,101567.27
2019-01-21T06:44:34.875Z,101567.28
2019-01-21T06:47:43.380Z,101575.52
2019-01-21T06:50:51.996Z,101562.47
2019-01-21T06:53:54.375Z,101563.80
2019-01-21T07:00:18.895Z,101557.72
2019-01-21T07:03:28.153Z,101563.82
2019-01-21T07:06:36.655Z,101568.16
2019-01-21T07:09:45.255Z,101562.50
2019-01-21T07:12:27.632Z,101562.52
2019-01-21T07:15:38.031Z,101566.42
2019-01-21T07:18:47.523Z,101571.20
2019-01-21T07:21:57.844Z,101572.50
2019-01-21T07:25:06.986Z,101567.25
2019-01-21T07:28:16.535Z,101555.05
2019-01-21T07:31:31.098Z,101551.11
2019-01-21T07:34:14.361Z,101553.31
2019-01-21T07:37:31.735Z,101551.98
2019-01-21T07:40:41.249Z,101554.19
2019-01-21T07:47:19.518Z,101553.28
2019-01-21T07:50:12.497Z,101559.36
2019-01-21T07:53:21.831Z,101572.42
2019-01-21T07:56:32.576Z,101568.07
2019-01-21T07:59:42.093Z,101559.78
2019-01-21T08:02:38.514Z,101562.87
2019-01-21T08:05:48.193Z,101551.49
2019-01-21T08:08:58.792Z,101549.75
2019-01-21T08:12:08.616Z,101554.07
2019-01-21T08:15:17.693Z,101557.57
2019-01-21T08:21:38.809Z,101555.37
2019-01-21T08:24:47.938Z,101556.65
2019-01-21T08:27:58.722Z,101554.42
2019-01-21T08:31:09.560Z,101560.53
2019-01-21T08:34:18.630Z,101556.59
2019-01-21T08:37:13.324Z,101545.70
2019-01-21T08:43:31.089Z,101536.94
2019-01-21T08:49:56.335Z,101536.42
2019-01-21T08:52:52.699Z,101532.05
2019-01-21T08:56:01.175Z,101531.16
2019-01-21T08:59:09.674Z,101534.19
2019-01-21T09:02:18.069Z,101528.45
2019-01-21T09:05:26.509Z,101519.72
2019-01-21T09:08:37.646Z,101520.61
2019-01-21T09:11:45.164Z,101508.33
2019-01-21T09:14:27.354Z,101499.08
2019-01-21T09:17:41.125Z,101507.42
2019-01-21T09:20:49.571Z,101513.09
2019-01-21T09:23:58.102Z,101516.91
2019-01-21T09:27:06.509Z,101511.64
2019-01-21T09:30:15.024Z,101501.89
2019-01-21T09:33:23.462Z,101498.75
2019-01-21T09:36:05.635Z,101506.21
2019-01-21T09:39:14.147Z,101505.20
2019-01-21T09:42:09.536Z,101504.27
2019-01-21T09:45:02.677Z,101509.51
2019-01-21T09:50:13.869Z,101498.49
2019-01-21T09:53:23.863Z,101510.17
2019-01-21T09:55:55.391Z,101504.78
2019-01-21T09:58:25.736Z,101499.56
2019-01-21T10:01:37.537Z,101503.05
2019-01-21T10:07:38.485Z,101497.91
2019-01-21T10:10:46.888Z,101482.19
2019-01-21T10:13:55.337Z,101481.23
2019-01-21T10:17:03.859Z,101476.38
2019-01-21T10:20:12.425Z,101475.44
2019-01-21T10:23:06.161Z,101474.89
2019-01-21T10:26:14.718Z,101476.57
2019-01-21T10:29:06.591Z,101466.79
2019-01-21T10:32:16.800Z,101466.67
2019-01-21T10:35:25.304Z,101455.36
2019-01-21T10:38:07.621Z,101439.11
2019-01-21T10:41:16.142Z,101432.83
2019-01-21T10:44:24.670Z,101434.70
2019-01-21T10:47:33.117Z,101437.84
2019-01-21T10:53:49.391Z,101442.52
2019-01-21T10:57:00.044Z,101437.57
2019-01-21T11:00:08.499Z,101435.72
2019-01-21T11:03:02.708Z,101413.10
2019-01-21T11:06:21.352Z,101416.59
2019-01-21T11:09:26.607Z,101413.28
2019-01-21T11:12:30.018Z,101414.64
2019-01-21T11:15:22.610Z,101406.81
2019-01-21T11:18:31.039Z,101405.77
2019-01-21T11:21:33.360Z,101398.27
2019-01-21T11:24:41.793Z,101401.80
2019-01-21T11:27:51.723Z,101397.17
2019-01-21T11:30:53.826Z,101396.95
2019-01-21T11:34:02.582Z,101390.80
2019-01-21T11:37:11.068Z,101384.89
2019-01-21T11:40:19.588Z,101385.57
2019-01-21T11:43:29.304Z,101376.46
2019-01-21T11:46:32.974Z,101371.91
2019-01-21T11:49:26.591Z,101375.14
2019-01-21T11:52:37.314Z,101373.18
2019-01-21T11:55:49.851Z,101380.91
2019-01-21T11:58:58.617Z,101379.59
2019-01-21T12:02:07.817Z,101378.27
2019-01-21T12:05:01.384Z,101374.66
2019-01-21T12:14:33.639Z,101371.95
2019-01-21T12:17:15.327Z,101372.72
2019-01-21T12:19:56.809Z,101364.45
2019-01-21T12:23:05.245Z,101365.65
2019-01-21T12:26:13.856Z,101368.35
2019-01-21T12:29:07.483Z,101354.49
2019-01-21T12:31:50.633Z,101354.60
2019-01-21T12:34:59.134Z,101351.84
2019-01-21T12:37:52.913Z,101352.30
2019-01-21T12:40:39.542Z,101353.28
2019-01-21T12:43:48.010Z,101349.83
2019-01-21T12:46:43.046Z,101342.80
2019-01-21T12:49:51.878Z,101342.16
2019-01-21T12:52:43.913Z,101339.48
2019-01-21T12:55:52.420Z,101342.58
2019-01-21T12:58:34.164Z,101338.43
2019-01-21T13:01:42.772Z,101331.02
2019-01-21T13:04:51.532Z,101330.94
2019-01-21T13:08:00.029Z,101328.75
2019-01-21T13:10:54.495Z,101326.53
2019-01-21T13:13:49.430Z,101329.19
2019-01-21T13:16:58.196Z,101323.77
2019-01-21T13:23:01.801Z,101315.03
2019-01-21T13:26:10.299Z,101310.48
2019-01-21T13:29:02.175Z,101315.95
2019-01-21T13:32:10.615Z,101306.34
2019-01-21T13:35:19.055Z,101312.23
2019-01-21T13:38:14.815Z,101304.60
2019-01-21T13:41:12.240Z,101301.19
2019-01-21T13:44:11.231Z,101297.55
2019-01-21T13:47:19.900Z,101290.17
2019-01-21T13:53:37.836Z,101286.38
2019-01-21T13:56:33.735Z,101277.55
2019-01-21T13:59:43.075Z,101279.16
2019-01-21T14:02:51.501Z,101274.36
2019-01-21T14:06:00.266Z,101267.77
2019-01-21T14:09:08.786Z,101269.08
2019-01-21T14:11:57.058Z,101261.19
2019-01-21T14:15:00.478Z,101267.36
2019-01-21T14:18:15.221Z,101259.45
2019-01-21T14:21:11.213Z,101256.05
2019-01-21T14:24:30.335Z,101250.47
2019-01-21T14:27:38.872Z,101245.62
2019-01-21T14:30:35.218Z,101245.20
2019-01-21T14:33:30.506Z,101242.52
2019-01-21T14:36:25.850Z,101242.42
2019-01-21T14:39:21.621Z,101236.66
2019-01-21T14:42:30.059Z,101237.88
2019-01-21T14:52:13.175Z,101235.09
2019-01-21T14:55:08.549Z,101236.09
2019-01-21T14:58:17.014Z,101231.73
2019-01-21T15:01:15.936Z,101227.28
2019-01-21T15:04:17.794Z,101228.28
2019-01-21T15:10:39.361Z,101232.64
2019-01-21T15:13:36.222Z,101232.33
2019-01-21T15:16:38.221Z,101237.36
2019-01-21T15:19:46.858Z,101240.36
2019-01-21T15:22:40.382Z,101242.52
2019-01-21T15:25:48.813Z,101237.72
2019-01-21T15:28:57.400Z,101238.42
2019-01-21T15:32:06.728Z,101237.52
2019-01-21T15:35:15.649Z,101242.67
2019-01-21T15:38:30.624Z,101241.42
2019-01-21T15:41:39.236Z,101242.42
2019-01-21T15:44:48.434Z,101244.25
2019-01-21T15:47:57.132Z,101236.41
2019-01-21T15:51:04.992Z,101235.53
2019-01-21T15:54:04.656Z,101238.16
2019-01-21T15:57:13.090Z,101242.17
2019-01-21T16:00:21.645Z,101246.53
2019-01-21T16:03:17.258Z,101239.18
2019-01-21T16:06:25.871Z,101238.82
2019-01-21T16:09:34.241Z,101236.64
2019-01-21T16:12:42.906Z,101242.22
2019-01-21T16:15:37.232Z,101239.95
2019-01-21T16:21:57.613Z,101234.77
2019-01-21T16:25:06.232Z,101239.12
2019-01-21T16:28:14.853Z,101239.84
2019-01-21T16:31:00.179Z,101239.22
2019-01-21T16:33:55.205Z,101233.91
2019-01-21T16:37:03.734Z,101230.77
2019-01-21T16:42:44.221Z,101229.33
2019-01-21T16:45:15.773Z,101230.19
2019-01-21T16:47:46.575Z,101227.96
2019-01-21T16:50:36.903Z,101232.48
2019-01-21T16:53:07.139Z,101214.90
2019-01-21T16:55:37.772Z,101224.17
2019-01-21T17:00:50.255Z,101235.53
2019-01-21T17:03:22.375Z,101224.83
2019-01-21T17:05:52.729Z,101225.34
2019-01-21T17:08:23.410Z,101230.16
2019-01-21T17:10:53.879Z,101228.47
2019-01-21T17:13:24.236Z,101222.86
2019-01-21T17:15:54.707Z,101212.60
2019-01-21T17:18:44.360Z,101216.48
2019-01-21T17:21:14.776Z,101209.08
2019-01-21T17:23:45.219Z,101220.32
2019-01-21T17:26:15.904Z,101216.87
2019-01-21T17:28:46.336Z,101218.64
2019-01-21T17:31:16.777Z,101219.23
2019-01-21T17:33:47.259Z,101216.60
2019-01-21T17:36:17.628Z,101222.80
2019-01-21T17:38:48.085Z,101220.00
2019-01-21T17:41:18.719Z,101214.27
2019-01-21T17:43:58.781Z,101211.91
2019-01-21T17:46:30.843Z,101210.83
2019-01-21T17:49:01.507Z,101208.09
2019-01-21T17:51:35.400Z,101202.77
2019-01-21T17:54:06.722Z,101201.59
2019-01-21T17:56:36.923Z,101202.00
2019-01-21T17:59:07.542Z,101202.41
2019-01-21T18:01:39.402Z,101203.22
2019-01-21T18:04:16.122Z,101198.50
2019-01-21T18:06:46.463Z,101192.83
2019-01-21T18:09:16.925Z,101193.79
2019-01-21T18:11:47.556Z,101187.27
2019-01-21T18:14:17.960Z,101193.28
2019-01-21T18:16:48.281Z,101190.24
2019-01-21T18:19:18.709Z,101181.32
2019-01-21T18:21:49.170Z,101187.41
2019-01-21T18:24:31.516Z,101180.73
2019-01-21T18:27:02.419Z,101186.03
2019-01-21T18:29:32.656Z,101183.95
2019-01-21T18:32:02.926Z,101189.05
2019-01-21T18:34:33.336Z,101182.87
2019-01-21T18:40:28.953Z,101185.45
2019-01-21T18:42:59.279Z,101191.13
2019-01-21T18:45:29.686Z,101187.53
2019-01-21T18:48:00.029Z,101180.43
2019-01-21T18:50:30.672Z,101179.97
2019-01-21T18:53:01.815Z,101175.31
2019-01-21T18:55:32.197Z,101168.77
2019-01-21T18:58:04.116Z,101169.69
2019-01-21T19:00:34.420Z,101172.73
2019-01-21T19:05:48.785Z,101176.68
2019-01-21T19:11:22.679Z,101174.09
2019-01-21T19:16:38.827Z,101179.16
2019-01-21T19:19:09.737Z,101176.17
2019-01-21T19:21:39.979Z,101173.64
2019-01-21T19:24:30.898Z,101175.41
2019-01-21T19:27:12.870Z,101164.47
2019-01-21T19:32:25.833Z,101164.87
2019-01-21T19:37:38.805Z,101165.39
2019-01-21T19:40:12.649Z,101160.81
2019-01-21T19:43:02.590Z,101162.59
2019-01-21T19:45:33.230Z,101161.56
2019-01-21T19:48:03.827Z,101156.09
2019-01-21T19:50:34.163Z,101158.69
2019-01-21T19:53:24.014Z,101156.09
2019-01-21T19:55:54.318Z,101160.98
2019-01-21T19:58:24.583Z,101157.59
2019-01-21T20:00:55.198Z,101157.59
2019-01-21T20:03:25.516Z,101154.67
2019-01-21T20:05:57.445Z,101155.97
2019-01-21T20:08:28.031Z,101151.56
2019-01-21T20:10:58.463Z,101151.52
2019-01-21T20:13:28.693Z,101149.73
2019-01-21T20:19:03.396Z,101148.77
2019-01-21T20:21:34.106Z,101154.78
2019-01-21T20:24:04.384Z,101153.18
2019-01-21T20:26:34.694Z,101154.38
2019-01-21T20:29:06.326Z,101155.70
2019-01-21T20:31:39.309Z,101152.95
2019-01-21T20:34:10.170Z,101148.77
2019-01-21T20:39:22.829Z,101149.86
2019-01-21T20:41:55.034Z,101148.87
2019-01-21T20:44:25.294Z,101154.66
2019-01-21T20:46:55.746Z,101145.50
2019-01-21T20:49:33.030Z,101145.89
2019-01-21T20:52:03.485Z,101146.64
2019-01-21T20:54:33.847Z,101148.87
2019-01-21T20:57:04.323Z,101140.23
2019-01-21T20:59:35.337Z,101139.83
2019-01-21T21:04:55.320Z,101145.42
2019-01-21T21:07:25.670Z,101140.97
2019-01-21T21:09:56.044Z,101143.27
2019-01-21T21:12:26.653Z,101147.91
2019-01-21T21:14:56.988Z,101138.33
2019-01-21T21:17:27.345Z,101145.61
2019-01-21T21:19:57.546Z,101147.05
2019-01-21T21:22:27.785Z,101153.36
2019-01-21T21:24:58.106Z,101145.95
2019-01-21T21:27:39.210Z,101149.19
2019-01-21T21:30:33.433Z,101146.59
2019-01-21T21:35:47.995Z,101148.64
2019-01-21T21:38:18.434Z,101141.33
2019-01-21T21:40:48.689Z,101139.31
2019-01-21T21:43:44.714Z,101142.74
2019-01-21T21:46:14.919Z,101137.39
2019-01-21T21:48:45.550Z,101142.28
2019-01-21T21:51:26.503Z,101139.70
2019-01-21T21:53:57.032Z,101143.30
2019-01-21T21:56:27.253Z,101139.70
2019-01-21T21:58:57.687Z,101138.31
2019-01-21T22:01:40.209Z,101132.37
2019-01-21T22:07:00.951Z,101131.51
2019-01-21T22:09:31.482Z,101134.20
2019-01-21T22:12:01.732Z,101130.14
2019-01-21T22:14:32.019Z,101124.23
2019-01-21T22:17:02.420Z,101117.64
2019-01-21T22:19:32.773Z,101113.81
2019-01-21T22:22:03.039Z,101108.47
2019-01-21T22:24:33.318Z,101109.52
2019-01-21T22:27:03.765Z,101110.45
2019-01-21T22:29:34.114Z,101102.60
2019-01-21T22:34:46.443Z,101103.81
2019-01-21T22:37:17.146Z,101097.09
2019-01-21T22:39:48.056Z,101105.65
2019-01-21T22:42:28.898Z,101099.97
2019-01-21T22:44:59.213Z,101103.52
2019-01-21T22:47:29.489Z,101102.67
2019-01-21T22:50:00.248Z,101098.92
2019-01-21T22:52:42.229Z,101098.83
2019-01-21T22:55:22.594Z,101098.83
2019-01-21T22:57:53.267Z,101096.09
2019-01-21T23:03:29.208Z,101091.98
2019-01-21T23:06:01.168Z,101093.36
2019-01-21T23:08:31.524Z,101093.17
2019-01-21T23:11:02.106Z,101092.50
2019-01-21T23:13:32.459Z,101088.26
2019-01-21T23:16:02.889Z,101087.45
2019-01-21T23:18:33.266Z,101088.76
2019-01-21T23:21:15.041Z,101076.10
2019-01-21T23:23:45.486Z,101072.06
2019-01-21T23:26:15.717Z,101072.47
2019-01-21T23:28:46.017Z,101075.20
2019-01-21T23:34:20.790Z,101067.75
2019-01-21T23:36:51.268Z,101066.44
2019-01-21T23:39:41.001Z,101067.55
2019-01-21T23:42:11.366Z,101059.14
2019-01-21T23:44:52.148Z,101063.59
2019-01-21T23:50:17.513Z,101053.42
2019-01-21T23:55:30.728Z,101041.63
2019-01-21T23:58:01.032Z,101039.80
